sensor_id;sensor_type;location;lat;lon;timestamp;P1;durP1;ratioP1;P2;durP2;ratioP2
56477;SDS011;42382;53.210;5.772;2024-03-29T00:00:41;3.00;;;0.52;;
56477;SDS011;42382;53.210;5.772;2024-03-29T00:03:10;5.13;;;0.40;;
56477;SDS011;42382;53.210;5.772;2024-03-29T00:05:36;2.30;;;0.55;;
56477;SDS011;42382;53.210;5.772;2024-03-29T00:08:03;6.00;;;0.50;;
56477;SDS011;42382;53.210;5.772;2024-03-29T00:10:29;2.38;;;0.25;;
56477;SDS011;42382;53.210;5.772;2024-03-29T00:12:55;2.85;;;0.40;;
56477;SDS011;42382;53.210;5.772;2024-03-29T00:15:20;3.30;;;1.05;;
56477;SDS011;42382;53.210;5.772;2024-03-29T00:17:46;3.92;;;0.38;;
56477;SDS011;42382;53.210;5.772;2024-03-29T00:20:12;4.47;;;0.40;;
56477;SDS011;42382;53.210;5.772;2024-03-29T00:22:37;3.20;;;0.40;;
56477;SDS011;42382;53.210;5.772;2024-03-29T00:25:03;5.90;;;0.20;;
56477;SDS011;42382;53.210;5.772;2024-03-29T00:27:29;5.00;;;0.50;;
56477;SDS011;42382;53.210;5.772;2024-03-29T00:29:55;4.55;;;0.30;;
56477;SDS011;42382;53.210;5.772;2024-03-29T00:32:21;3.65;;;0.38;;
56477;SDS011;42382;53.210;5.772;2024-03-29T00:34:50;2.00;;;0.20;;
56477;SDS011;42382;53.210;5.772;2024-03-29T00:37:17;3.28;;;0.35;;
56477;SDS011;42382;53.210;5.772;2024-03-29T00:39:42;1.83;;;0.13;;
56477;SDS011;42382;53.210;5.772;2024-03-29T00:42:08;5.05;;;0.50;;
56477;SDS011;42382;53.210;5.772;2024-03-29T00:44:37;4.57;;;0.30;;
56477;SDS011;42382;53.210;5.772;2024-03-29T00:47:06;6.32;;;0.45;;
56477;SDS011;42382;53.210;5.772;2024-03-29T00:49:32;6.35;;;0.40;;
56477;SDS011;42382;53.210;5.772;2024-03-29T00:51:57;4.78;;;0.35;;
56477;SDS011;42382;53.210;5.772;2024-03-29T00:54:23;4.40;;;0.40;;
56477;SDS011;42382;53.210;5.772;2024-03-29T00:56:49;3.35;;;0.30;;
56477;SDS011;42382;53.210;5.772;2024-03-29T00:59:15;2.10;;;0.10;;
56477;SDS011;42382;53.210;5.772;2024-03-29T01:01:41;6.40;;;0.40;;
56477;SDS011;42382;53.210;5.772;2024-03-29T01:04:07;4.07;;;0.30;;
56477;SDS011;42382;53.210;5.772;2024-03-29T01:06:33;6.68;;;0.40;;
56477;SDS011;42382;53.210;5.772;2024-03-29T01:08:59;8.38;;;0.60;;
56477;SDS011;42382;53.210;5.772;2024-03-29T01:11:25;3.13;;;0.20;;
56477;SDS011;42382;53.210;5.772;2024-03-29T01:13:51;5.10;;;0.30;;
56477;SDS011;42382;53.210;5.772;2024-03-29T01:16:17;5.60;;;0.35;;
56477;SDS011;42382;53.210;5.772;2024-03-29T01:18:43;4.18;;;0.47;;
56477;SDS011;42382;53.210;5.772;2024-03-29T01:21:09;5.75;;;0.57;;
56477;SDS011;42382;53.210;5.772;2024-03-29T01:23:35;6.05;;;0.77;;
56477;SDS011;42382;53.210;5.772;2024-03-29T01:26:00;5.32;;;0.50;;
56477;SDS011;42382;53.210;5.772;2024-03-29T01:28:26;3.42;;;0.30;;
56477;SDS011;42382;53.210;5.772;2024-03-29T01:30:52;3.13;;;0.43;;
56477;SDS011;42382;53.210;5.772;2024-03-29T01:33:19;4.85;;;0.50;;
56477;SDS011;42382;53.210;5.772;2024-03-29T01:35:45;7.53;;;0.63;;
56477;SDS011;42382;53.210;5.772;2024-03-29T01:38:11;5.05;;;0.68;;
56477;SDS011;42382;53.210;5.772;2024-03-29T01:40:36;4.03;;;0.40;;
56477;SDS011;42382;53.210;5.772;2024-03-29T01:43:02;3.83;;;0.40;;
56477;SDS011;42382;53.210;5.772;2024-03-29T01:45:27;6.95;;;0.70;;
56477;SDS011;42382;53.210;5.772;2024-03-29T01:47:54;5.55;;;0.70;;
56477;SDS011;42382;53.210;5.772;2024-03-29T01:50:20;5.03;;;0.57;;
56477;SDS011;42382;53.210;5.772;2024-03-29T01:52:46;8.75;;;0.73;;
56477;SDS011;42382;53.210;5.772;2024-03-29T01:55:13;7.30;;;1.23;;
56477;SDS011;42382;53.210;5.772;2024-03-29T01:57:38;6.07;;;0.65;;
56477;SDS011;42382;53.210;5.772;2024-03-29T02:00:05;6.35;;;0.60;;
56477;SDS011;42382;53.210;5.772;2024-03-29T02:02:35;5.22;;;0.50;;
56477;SDS011;42382;53.210;5.772;2024-03-29T02:05:01;3.97;;;0.75;;
56477;SDS011;42382;53.210;5.772;2024-03-29T02:07:29;3.17;;;0.38;;
56477;SDS011;42382;53.210;5.772;2024-03-29T02:09:55;6.90;;;0.98;;
56477;SDS011;42382;53.210;5.772;2024-03-29T02:12:21;6.15;;;0.55;;
56477;SDS011;42382;53.210;5.772;2024-03-29T02:14:47;3.75;;;0.40;;
56477;SDS011;42382;53.210;5.772;2024-03-29T02:17:12;6.63;;;0.45;;
56477;SDS011;42382;53.210;5.772;2024-03-29T02:19:38;5.20;;;0.30;;
56477;SDS011;42382;53.210;5.772;2024-03-29T02:22:03;3.33;;;0.32;;
56477;SDS011;42382;53.210;5.772;2024-03-29T02:24:31;4.82;;;0.30;;
56477;SDS011;42382;53.210;5.772;2024-03-29T02:26:57;3.25;;;0.50;;
56477;SDS011;42382;53.210;5.772;2024-03-29T02:29:23;4.18;;;0.65;;
56477;SDS011;42382;53.210;5.772;2024-03-29T02:31:49;5.18;;;0.40;;
56477;SDS011;42382;53.210;5.772;2024-03-29T02:34:15;7.30;;;0.85;;
56477;SDS011;42382;53.210;5.772;2024-03-29T02:36:41;3.78;;;0.30;;
56477;SDS011;42382;53.210;5.772;2024-03-29T02:39:09;4.35;;;0.35;;
56477;SDS011;42382;53.210;5.772;2024-03-29T02:41:35;1.92;;;0.20;;
56477;SDS011;42382;53.210;5.772;2024-03-29T02:44:00;5.35;;;0.45;;
56477;SDS011;42382;53.210;5.772;2024-03-29T02:46:26;6.18;;;0.52;;
56477;SDS011;42382;53.210;5.772;2024-03-29T02:48:52;2.60;;;0.22;;
56477;SDS011;42382;53.210;5.772;2024-03-29T02:51:18;3.65;;;0.30;;
56477;SDS011;42382;53.210;5.772;2024-03-29T02:53:44;6.63;;;0.50;;
56477;SDS011;42382;53.210;5.772;2024-03-29T02:56:09;3.45;;;0.22;;
56477;SDS011;42382;53.210;5.772;2024-03-29T02:58:35;5.45;;;0.63;;
56477;SDS011;42382;53.210;5.772;2024-03-29T03:01:10;3.30;;;0.30;;
56477;SDS011;42382;53.210;5.772;2024-03-29T03:03:37;4.57;;;0.40;;
56477;SDS011;42382;53.210;5.772;2024-03-29T03:06:02;3.83;;;0.65;;
56477;SDS011;42382;53.210;5.772;2024-03-29T03:08:31;5.22;;;0.35;;
56477;SDS011;42382;53.210;5.772;2024-03-29T03:11:15;4.20;;;0.30;;
56477;SDS011;42382;53.210;5.772;2024-03-29T03:13:41;5.75;;;0.38;;
56477;SDS011;42382;53.210;5.772;2024-03-29T03:16:06;7.75;;;0.85;;
56477;SDS011;42382;53.210;5.772;2024-03-29T03:18:32;6.38;;;0.40;;
56477;SDS011;42382;53.210;5.772;2024-03-29T03:20:57;7.05;;;0.50;;
56477;SDS011;42382;53.210;5.772;2024-03-29T03:23:24;4.85;;;0.38;;
56477;SDS011;42382;53.210;5.772;2024-03-29T03:25:53;4.15;;;0.30;;
56477;SDS011;42382;53.210;5.772;2024-03-29T03:28:19;4.90;;;0.40;;
56477;SDS011;42382;53.210;5.772;2024-03-29T03:30:45;1.98;;;0.22;;
56477;SDS011;42382;53.210;5.772;2024-03-29T03:33:11;3.85;;;0.30;;
56477;SDS011;42382;53.210;5.772;2024-03-29T03:35:36;4.43;;;0.30;;
56477;SDS011;42382;53.210;5.772;2024-03-29T03:38:02;3.92;;;0.57;;
56477;SDS011;42382;53.210;5.772;2024-03-29T03:40:27;3.53;;;0.20;;
56477;SDS011;42382;53.210;5.772;2024-03-29T03:42:53;3.60;;;0.40;;
56477;SDS011;42382;53.210;5.772;2024-03-29T03:45:19;4.75;;;0.47;;
56477;SDS011;42382;53.210;5.772;2024-03-29T03:47:45;4.10;;;0.40;;
56477;SDS011;42382;53.210;5.772;2024-03-29T03:50:10;4.55;;;0.38;;
56477;SDS011;42382;53.210;5.772;2024-03-29T03:52:36;6.60;;;0.32;;
56477;SDS011;42382;53.210;5.772;2024-03-29T03:55:02;9.30;;;0.88;;
56477;SDS011;42382;53.210;5.772;2024-03-29T03:57:27;7.18;;;0.85;;
56477;SDS011;42382;53.210;5.772;2024-03-29T03:59:53;2.70;;;0.20;;
56477;SDS011;42382;53.210;5.772;2024-03-29T04:02:18;3.75;;;0.35;;
56477;SDS011;42382;53.210;5.772;2024-03-29T04:04:47;3.83;;;0.50;;
56477;SDS011;42382;53.210;5.772;2024-03-29T04:07:13;4.95;;;0.28;;
56477;SDS011;42382;53.210;5.772;2024-03-29T04:09:39;4.03;;;0.30;;
56477;SDS011;42382;53.210;5.772;2024-03-29T04:12:04;3.40;;;0.63;;
56477;SDS011;42382;53.210;5.772;2024-03-29T04:14:30;5.95;;;1.08;;
56477;SDS011;42382;53.210;5.772;2024-03-29T04:16:56;2.28;;;0.20;;
56477;SDS011;42382;53.210;5.772;2024-03-29T04:19:22;7.57;;;0.20;;
56477;SDS011;42382;53.210;5.772;2024-03-29T04:21:47;7.30;;;0.22;;
56477;SDS011;42382;53.210;5.772;2024-03-29T04:24:13;4.97;;;0.30;;
56477;SDS011;42382;53.210;5.772;2024-03-29T04:26:38;4.13;;;0.40;;
56477;SDS011;42382;53.210;5.772;2024-03-29T04:29:04;1.25;;;0.10;;
56477;SDS011;42382;53.210;5.772;2024-03-29T04:31:30;5.25;;;0.70;;
56477;SDS011;42382;53.210;5.772;2024-03-29T04:33:56;3.05;;;0.32;;
56477;SDS011;42382;53.210;5.772;2024-03-29T04:36:21;4.63;;;0.40;;
56477;SDS011;42382;53.210;5.772;2024-03-29T04:38:47;3.78;;;0.22;;
56477;SDS011;42382;53.210;5.772;2024-03-29T04:41:13;4.07;;;0.30;;
56477;SDS011;42382;53.210;5.772;2024-03-29T04:43:39;2.55;;;0.25;;
56477;SDS011;42382;53.210;5.772;2024-03-29T04:46:12;3.92;;;0.32;;
56477;SDS011;42382;53.210;5.772;2024-03-29T04:48:39;2.80;;;0.35;;
56477;SDS011;42382;53.210;5.772;2024-03-29T04:51:06;10.13;;;0.77;;
56477;SDS011;42382;53.210;5.772;2024-03-29T04:53:32;4.72;;;0.20;;
56477;SDS011;42382;53.210;5.772;2024-03-29T04:55:59;5.43;;;0.43;;
56477;SDS011;42382;53.210;5.772;2024-03-29T04:58:25;5.38;;;0.50;;
56477;SDS011;42382;53.210;5.772;2024-03-29T05:00:51;4.60;;;0.30;;
56477;SDS011;42382;53.210;5.772;2024-03-29T05:03:18;2.28;;;0.40;;
56477;SDS011;42382;53.210;5.772;2024-03-29T05:05:44;3.50;;;0.40;;
56477;SDS011;42382;53.210;5.772;2024-03-29T05:08:11;3.28;;;0.40;;
56477;SDS011;42382;53.210;5.772;2024-03-29T05:10:37;2.65;;;0.52;;
56477;SDS011;42382;53.210;5.772;2024-03-29T05:13:04;3.70;;;0.10;;
56477;SDS011;42382;53.210;5.772;2024-03-29T05:15:29;4.30;;;0.40;;
56477;SDS011;42382;53.210;5.772;2024-03-29T05:17:55;3.15;;;0.52;;
56477;SDS011;42382;53.210;5.772;2024-03-29T05:20:20;6.38;;;0.73;;
56477;SDS011;42382;53.210;5.772;2024-03-29T05:22:46;2.63;;;0.20;;
56477;SDS011;42382;53.210;5.772;2024-03-29T05:25:11;5.15;;;0.30;;
56477;SDS011;42382;53.210;5.772;2024-03-29T05:27:37;9.77;;;0.70;;
56477;SDS011;42382;53.210;5.772;2024-03-29T05:30:03;3.03;;;0.20;;
56477;SDS011;42382;53.210;5.772;2024-03-29T05:32:32;4.75;;;0.57;;
56477;SDS011;42382;53.210;5.772;2024-03-29T05:34:57;4.55;;;0.20;;
56477;SDS011;42382;53.210;5.772;2024-03-29T05:37:23;5.65;;;0.50;;
56477;SDS011;42382;53.210;5.772;2024-03-29T05:39:52;3.75;;;0.20;;
56477;SDS011;42382;53.210;5.772;2024-03-29T05:42:25;3.53;;;0.13;;
56477;SDS011;42382;53.210;5.772;2024-03-29T05:44:51;2.35;;;0.10;;
56477;SDS011;42382;53.210;5.772;2024-03-29T05:47:17;7.22;;;0.30;;
56477;SDS011;42382;53.210;5.772;2024-03-29T05:49:42;3.67;;;0.20;;
56477;SDS011;42382;53.210;5.772;2024-03-29T05:52:08;3.72;;;0.40;;
56477;SDS011;42382;53.210;5.772;2024-03-29T05:54:34;2.40;;;0.38;;
56477;SDS011;42382;53.210;5.772;2024-03-29T05:56:59;5.10;;;0.40;;
56477;SDS011;42382;53.210;5.772;2024-03-29T05:59:25;4.75;;;0.98;;
56477;SDS011;42382;53.210;5.772;2024-03-29T06:01:50;3.38;;;0.30;;
56477;SDS011;42382;53.210;5.772;2024-03-29T06:04:16;4.40;;;0.38;;
56477;SDS011;42382;53.210;5.772;2024-03-29T06:06:44;1.70;;;0.20;;
56477;SDS011;42382;53.210;5.772;2024-03-29T06:09:10;4.85;;;0.38;;
56477;SDS011;42382;53.210;5.772;2024-03-29T06:11:36;2.42;;;0.20;;
56477;SDS011;42382;53.210;5.772;2024-03-29T06:14:02;3.58;;;0.30;;
56477;SDS011;42382;53.210;5.772;2024-03-29T06:16:28;2.50;;;0.20;;
56477;SDS011;42382;53.210;5.772;2024-03-29T06:19:32;3.50;;;0.30;;
56477;SDS011;42382;53.210;5.772;2024-03-29T06:21:57;3.65;;;0.30;;
56477;SDS011;42382;53.210;5.772;2024-03-29T06:24:23;2.40;;;0.20;;
56477;SDS011;42382;53.210;5.772;2024-03-29T06:26:48;2.08;;;0.30;;
56477;SDS011;42382;53.210;5.772;2024-03-29T06:29:14;2.33;;;0.32;;
56477;SDS011;42382;53.210;5.772;2024-03-29T06:31:40;2.05;;;0.10;;
56477;SDS011;42382;53.210;5.772;2024-03-29T06:34:08;2.10;;;0.20;;
56477;SDS011;42382;53.210;5.772;2024-03-29T06:36:34;2.22;;;0.20;;
56477;SDS011;42382;53.210;5.772;2024-03-29T06:39:02;2.63;;;0.20;;
56477;SDS011;42382;53.210;5.772;2024-03-29T06:41:28;4.10;;;0.55;;
56477;SDS011;42382;53.210;5.772;2024-03-29T06:43:54;4.47;;;0.20;;
56477;SDS011;42382;53.210;5.772;2024-03-29T06:46:20;1.05;;;0.15;;
56477;SDS011;42382;53.210;5.772;2024-03-29T06:48:45;0.70;;;0.10;;
56477;SDS011;42382;53.210;5.772;2024-03-29T06:51:11;3.38;;;0.10;;
56477;SDS011;42382;53.210;5.772;2024-03-29T06:53:36;3.33;;;0.60;;
56477;SDS011;42382;53.210;5.772;2024-03-29T06:56:03;2.95;;;0.20;;
56477;SDS011;42382;53.210;5.772;2024-03-29T06:58:28;1.00;;;0.10;;
56477;SDS011;42382;53.210;5.772;2024-03-29T07:00:54;2.05;;;0.20;;
56477;SDS011;42382;53.210;5.772;2024-03-29T07:03:19;0.57;;;0.17;;
56477;SDS011;42382;53.210;5.772;2024-03-29T07:05:45;3.95;;;0.20;;
56477;SDS011;42382;53.210;5.772;2024-03-29T07:08:11;3.30;;;0.50;;
56477;SDS011;42382;53.210;5.772;2024-03-29T07:10:37;1.33;;;0.15;;
56477;SDS011;42382;53.210;5.772;2024-03-29T07:13:03;1.77;;;0.30;;
56477;SDS011;42382;53.210;5.772;2024-03-29T07:15:28;5.45;;;0.30;;
56477;SDS011;42382;53.210;5.772;2024-03-29T07:17:54;1.98;;;0.20;;
56477;SDS011;42382;53.210;5.772;2024-03-29T07:20:19;3.10;;;0.20;;
56477;SDS011;42382;53.210;5.772;2024-03-29T07:22:45;1.50;;;0.20;;
56477;SDS011;42382;53.210;5.772;2024-03-29T07:25:11;2.83;;;0.20;;
56477;SDS011;42382;53.210;5.772;2024-03-29T07:27:37;2.63;;;0.13;;
56477;SDS011;42382;53.210;5.772;2024-03-29T07:30:03;2.08;;;0.20;;
56477;SDS011;42382;53.210;5.772;2024-03-29T07:32:29;1.80;;;0.13;;
56477;SDS011;42382;53.210;5.772;2024-03-29T07:34:56;2.95;;;0.10;;
56477;SDS011;42382;53.210;5.772;2024-03-29T07:37:23;3.90;;;0.28;;
56477;SDS011;42382;53.210;5.772;2024-03-29T07:39:49;0.50;;;0.08;;
56477;SDS011;42382;53.210;5.772;2024-03-29T07:42:16;1.20;;;0.00;;
56477;SDS011;42382;53.210;5.772;2024-03-29T07:44:42;0.80;;;0.10;;
56477;SDS011;42382;53.210;5.772;2024-03-29T07:47:07;0.93;;;0.10;;
56477;SDS011;42382;53.210;5.772;2024-03-29T07:49:33;2.90;;;0.10;;
56477;SDS011;42382;53.210;5.772;2024-03-29T07:51:59;1.50;;;0.10;;
56477;SDS011;42382;53.210;5.772;2024-03-29T07:54:27;1.58;;;0.35;;
56477;SDS011;42382;53.210;5.772;2024-03-29T07:56:53;2.53;;;0.10;;
56477;SDS011;42382;53.210;5.772;2024-03-29T07:59:18;1.65;;;0.22;;
56477;SDS011;42382;53.210;5.772;2024-03-29T08:01:45;4.70;;;0.30;;
56477;SDS011;42382;53.210;5.772;2024-03-29T08:04:10;2.83;;;0.20;;
56477;SDS011;42382;53.210;5.772;2024-03-29T08:06:36;1.63;;;0.20;;
56477;SDS011;42382;53.210;5.772;2024-03-29T08:09:02;3.90;;;0.20;;
56477;SDS011;42382;53.210;5.772;2024-03-29T08:11:28;2.05;;;0.50;;
56477;SDS011;42382;53.210;5.772;2024-03-29T08:13:53;2.47;;;0.20;;
56477;SDS011;42382;53.210;5.772;2024-03-29T08:16:19;1.40;;;0.10;;
56477;SDS011;42382;53.210;5.772;2024-03-29T08:18:48;2.00;;;0.13;;
56477;SDS011;42382;53.210;5.772;2024-03-29T08:21:13;1.58;;;0.20;;
56477;SDS011;42382;53.210;5.772;2024-03-29T08:23:39;1.17;;;0.10;;
56477;SDS011;42382;53.210;5.772;2024-03-29T08:26:06;1.58;;;0.15;;
56477;SDS011;42382;53.210;5.772;2024-03-29T08:28:32;1.67;;;0.30;;
56477;SDS011;42382;53.210;5.772;2024-03-29T08:31:01;0.75;;;0.10;;
56477;SDS011;42382;53.210;5.772;2024-03-29T08:33:28;0.60;;;0.10;;
56477;SDS011;42382;53.210;5.772;2024-03-29T08:35:55;3.13;;;0.40;;
56477;SDS011;42382;53.210;5.772;2024-03-29T08:38:21;1.13;;;0.20;;
56477;SDS011;42382;53.210;5.772;2024-03-29T08:40:47;0.75;;;0.10;;
56477;SDS011;42382;53.210;5.772;2024-03-29T08:43:13;1.38;;;0.20;;
56477;SDS011;42382;53.210;5.772;2024-03-29T08:45:45;0.98;;;0.10;;
56477;SDS011;42382;53.210;5.772;2024-03-29T08:48:11;0.55;;;0.10;;
56477;SDS011;42382;53.210;5.772;2024-03-29T08:50:37;0.30;;;0.10;;
56477;SDS011;42382;53.210;5.772;2024-03-29T08:53:03;0.25;;;0.00;;
56477;SDS011;42382;53.210;5.772;2024-03-29T08:55:30;1.08;;;0.05;;
56477;SDS011;42382;53.210;5.772;2024-03-29T08:57:59;0.63;;;0.10;;
56477;SDS011;42382;53.210;5.772;2024-03-29T09:00:26;0.30;;;0.00;;
56477;SDS011;42382;53.210;5.772;2024-03-29T09:02:53;0.65;;;0.10;;
56477;SDS011;42382;53.210;5.772;2024-03-29T09:05:18;1.00;;;0.13;;
56477;SDS011;42382;53.210;5.772;2024-03-29T09:07:45;1.00;;;0.20;;
56477;SDS011;42382;53.210;5.772;2024-03-29T09:10:11;0.50;;;0.13;;
56477;SDS011;42382;53.210;5.772;2024-03-29T09:12:37;0.93;;;0.10;;
56477;SDS011;42382;53.210;5.772;2024-03-29T09:15:03;1.17;;;0.10;;
56477;SDS011;42382;53.210;5.772;2024-03-29T09:17:33;0.70;;;0.10;;
56477;SDS011;42382;53.210;5.772;2024-03-29T09:19:59;1.10;;;0.10;;
56477;SDS011;42382;53.210;5.772;2024-03-29T09:22:25;0.43;;;0.10;;
56477;SDS011;42382;53.210;5.772;2024-03-29T09:24:50;1.40;;;0.13;;
56477;SDS011;42382;53.210;5.772;2024-03-29T09:27:16;0.70;;;0.10;;
56477;SDS011;42382;53.210;5.772;2024-03-29T09:29:42;1.67;;;0.20;;
56477;SDS011;42382;53.210;5.772;2024-03-29T09:32:08;0.93;;;0.20;;
56477;SDS011;42382;53.210;5.772;2024-03-29T09:34:33;0.90;;;0.20;;
56477;SDS011;42382;53.210;5.772;2024-03-29T09:36:59;1.77;;;0.15;;
56477;SDS011;42382;53.210;5.772;2024-03-29T09:39:25;1.30;;;0.00;;
56477;SDS011;42382;53.210;5.772;2024-03-29T09:41:50;0.85;;;0.10;;
56477;SDS011;42382;53.210;5.772;2024-03-29T09:44:18;1.13;;;0.10;;
56477;SDS011;42382;53.210;5.772;2024-03-29T09:46:46;1.27;;;0.10;;
56477;SDS011;42382;53.210;5.772;2024-03-29T09:49:13;1.00;;;0.10;;
56477;SDS011;42382;53.210;5.772;2024-03-29T09:51:39;0.60;;;0.15;;
56477;SDS011;42382;53.210;5.772;2024-03-29T09:54:06;1.85;;;0.40;;
56477;SDS011;42382;53.210;5.772;2024-03-29T09:56:37;1.70;;;0.10;;
56477;SDS011;42382;53.210;5.772;2024-03-29T09:59:03;0.75;;;0.13;;
56477;SDS011;42382;53.210;5.772;2024-03-29T10:01:29;1.50;;;0.20;;
56477;SDS011;42382;53.210;5.772;2024-03-29T10:03:56;1.00;;;0.10;;
56477;SDS011;42382;53.210;5.772;2024-03-29T10:06:24;0.40;;;0.10;;
56477;SDS011;42382;53.210;5.772;2024-03-29T10:08:50;0.80;;;0.00;;
56477;SDS011;42382;53.210;5.772;2024-03-29T10:11:19;1.83;;;0.10;;
56477;SDS011;42382;53.210;5.772;2024-03-29T10:13:46;0.63;;;0.10;;
56477;SDS011;42382;53.210;5.772;2024-03-29T10:16:11;0.85;;;0.10;;
56477;SDS011;42382;53.210;5.772;2024-03-29T10:18:40;1.25;;;0.20;;
56477;SDS011;42382;53.210;5.772;2024-03-29T10:21:08;1.45;;;0.10;;
56477;SDS011;42382;53.210;5.772;2024-03-29T10:23:34;0.25;;;0.00;;
56477;SDS011;42382;53.210;5.772;2024-03-29T10:26:01;0.85;;;0.10;;
56477;SDS011;42382;53.210;5.772;2024-03-29T10:28:31;1.98;;;0.10;;
56477;SDS011;42382;53.210;5.772;2024-03-29T10:31:04;1.67;;;0.20;;
56477;SDS011;42382;53.210;5.772;2024-03-29T10:33:30;0.90;;;0.05;;
56477;SDS011;42382;53.210;5.772;2024-03-29T10:35:58;2.08;;;0.10;;
56477;SDS011;42382;53.210;5.772;2024-03-29T10:38:25;1.20;;;0.20;;
56477;SDS011;42382;53.210;5.772;2024-03-29T10:40:51;2.33;;;0.10;;
56477;SDS011;42382;53.210;5.772;2024-03-29T10:43:18;2.08;;;0.00;;
56477;SDS011;42382;53.210;5.772;2024-03-29T10:45:46;2.80;;;0.10;;
56477;SDS011;42382;53.210;5.772;2024-03-29T10:48:24;1.02;;;0.13;;
56477;SDS011;42382;53.210;5.772;2024-03-29T10:50:53;3.53;;;0.10;;
56477;SDS011;42382;53.210;5.772;2024-03-29T10:53:23;0.63;;;0.10;;
56477;SDS011;42382;53.210;5.772;2024-03-29T10:55:58;0.85;;;0.00;;
56477;SDS011;42382;53.210;5.772;2024-03-29T10:58:30;1.55;;;0.32;;
56477;SDS011;42382;53.210;5.772;2024-03-29T11:01:00;0.43;;;0.00;;
56477;SDS011;42382;53.210;5.772;2024-03-29T11:06:06;1.70;;;0.10;;
56477;SDS011;42382;53.210;5.772;2024-03-29T11:08:32;0.40;;;0.00;;
56477;SDS011;42382;53.210;5.772;2024-03-29T11:11:02;0.50;;;0.10;;
56477;SDS011;42382;53.210;5.772;2024-03-29T11:16:17;2.58;;;0.17;;
56477;SDS011;42382;53.210;5.772;2024-03-29T11:18:45;1.25;;;0.10;;
56477;SDS011;42382;53.210;5.772;2024-03-29T11:21:15;2.22;;;0.20;;
56477;SDS011;42382;53.210;5.772;2024-03-29T11:23:52;2.05;;;0.13;;
56477;SDS011;42382;53.210;5.772;2024-03-29T11:26:19;2.28;;;0.20;;
56477;SDS011;42382;53.210;5.772;2024-03-29T11:28:49;1.13;;;0.10;;
56477;SDS011;42382;53.210;5.772;2024-03-29T11:31:16;1.25;;;0.30;;
56477;SDS011;42382;53.210;5.772;2024-03-29T11:38:44;0.52;;;0.10;;
56477;SDS011;42382;53.210;5.772;2024-03-29T11:41:11;1.75;;;0.10;;
56477;SDS011;42382;53.210;5.772;2024-03-29T11:43:38;1.55;;;0.30;;
56477;SDS011;42382;53.210;5.772;2024-03-29T11:46:08;0.77;;;0.10;;
56477;SDS011;42382;53.210;5.772;2024-03-29T11:48:38;1.30;;;0.10;;
56477;SDS011;42382;53.210;5.772;2024-03-29T11:51:05;0.55;;;0.10;;
56477;SDS011;42382;53.210;5.772;2024-03-29T11:53:33;0.17;;;0.00;;
56477;SDS011;42382;53.210;5.772;2024-03-29T11:55:59;2.30;;;0.10;;
56477;SDS011;42382;53.210;5.772;2024-03-29T11:58:26;0.35;;;0.10;;
56477;SDS011;42382;53.210;5.772;2024-03-29T12:00:56;1.80;;;0.15;;
56477;SDS011;42382;53.210;5.772;2024-03-29T12:03:24;1.00;;;0.10;;
56477;SDS011;42382;53.210;5.772;2024-03-29T12:05:51;0.75;;;0.00;;
56477;SDS011;42382;53.210;5.772;2024-03-29T12:08:20;0.73;;;0.10;;
56477;SDS011;42382;53.210;5.772;2024-03-29T12:10:46;0.93;;;0.10;;
56477;SDS011;42382;53.210;5.772;2024-03-29T12:13:13;0.98;;;0.00;;
56477;SDS011;42382;53.210;5.772;2024-03-29T12:15:40;0.20;;;0.00;;
56477;SDS011;42382;53.210;5.772;2024-03-29T12:18:06;1.17;;;0.00;;
56477;SDS011;42382;53.210;5.772;2024-03-29T12:20:32;0.68;;;0.10;;
56477;SDS011;42382;53.210;5.772;2024-03-29T12:22:59;0.40;;;0.05;;
56477;SDS011;42382;53.210;5.772;2024-03-29T12:25:28;0.30;;;0.10;;
56477;SDS011;42382;53.210;5.772;2024-03-29T12:27:57;0.47;;;0.10;;
56477;SDS011;42382;53.210;5.772;2024-03-29T12:30:24;2.17;;;0.10;;
56477;SDS011;42382;53.210;5.772;2024-03-29T12:33:03;1.60;;;0.10;;
56477;SDS011;42382;53.210;5.772;2024-03-29T12:35:37;0.57;;;0.20;;
56477;SDS011;42382;53.210;5.772;2024-03-29T12:38:03;1.95;;;0.10;;
56477;SDS011;42382;53.210;5.772;2024-03-29T12:40:34;1.10;;;0.20;;
56477;SDS011;42382;53.210;5.772;2024-03-29T12:43:06;2.97;;;0.10;;
56477;SDS011;42382;53.210;5.772;2024-03-29T12:45:35;0.30;;;0.00;;
56477;SDS011;42382;53.210;5.772;2024-03-29T12:48:15;0.65;;;0.10;;
56477;SDS011;42382;53.210;5.772;2024-03-29T12:50:42;0.45;;;0.10;;
56477;SDS011;42382;53.210;5.772;2024-03-29T12:53:09;1.80;;;0.10;;
56477;SDS011;42382;53.210;5.772;2024-03-29T12:55:40;0.93;;;0.10;;
56477;SDS011;42382;53.210;5.772;2024-03-29T12:58:10;2.15;;;0.10;;
56477;SDS011;42382;53.210;5.772;2024-03-29T13:00:40;0.50;;;0.10;;
56477;SDS011;42382;53.210;5.772;2024-03-29T13:03:06;0.82;;;0.08;;
56477;SDS011;42382;53.210;5.772;2024-03-29T13:05:33;0.30;;;0.10;;
56477;SDS011;42382;53.210;5.772;2024-03-29T13:08:02;0.38;;;0.00;;
56477;SDS011;42382;53.210;5.772;2024-03-29T13:10:40;0.38;;;0.10;;
56477;SDS011;42382;53.210;5.772;2024-03-29T13:13:07;2.03;;;0.20;;
56477;SDS011;42382;53.210;5.772;2024-03-29T13:15:33;0.50;;;0.10;;
56477;SDS011;42382;53.210;5.772;2024-03-29T13:18:00;0.63;;;0.13;;
56477;SDS011;42382;53.210;5.772;2024-03-29T13:20:27;2.13;;;0.30;;
56477;SDS011;42382;53.210;5.772;2024-03-29T13:22:52;1.02;;;0.10;;
56477;SDS011;42382;53.210;5.772;2024-03-29T13:25:21;0.80;;;0.10;;
56477;SDS011;42382;53.210;5.772;2024-03-29T13:27:48;0.98;;;0.10;;
56477;SDS011;42382;53.210;5.772;2024-03-29T13:30:19;0.63;;;0.10;;
56477;SDS011;42382;53.210;5.772;2024-03-29T13:32:45;2.38;;;0.15;;
56477;SDS011;42382;53.210;5.772;2024-03-29T13:35:11;1.38;;;0.20;;
56477;SDS011;42382;53.210;5.772;2024-03-29T13:37:37;0.50;;;0.20;;
56477;SDS011;42382;53.210;5.772;2024-03-29T13:40:04;1.95;;;0.47;;
56477;SDS011;42382;53.210;5.772;2024-03-29T13:42:33;2.17;;;0.25;;
56477;SDS011;42382;53.210;5.772;2024-03-29T13:45:00;1.00;;;0.30;;
56477;SDS011;42382;53.210;5.772;2024-03-29T13:47:26;1.70;;;0.20;;
56477;SDS011;42382;53.210;5.772;2024-03-29T13:49:51;1.95;;;0.30;;
56477;SDS011;42382;53.210;5.772;2024-03-29T13:52:19;1.55;;;0.40;;
56477;SDS011;42382;53.210;5.772;2024-03-29T13:54:45;2.80;;;0.40;;
56477;SDS011;42382;53.210;5.772;2024-03-29T13:57:12;2.35;;;0.80;;
56477;SDS011;42382;53.210;5.772;2024-03-29T13:59:41;1.38;;;0.50;;
56477;SDS011;42382;53.210;5.772;2024-03-29T14:02:13;1.95;;;0.63;;
56477;SDS011;42382;53.210;5.772;2024-03-29T14:04:42;1.98;;;0.90;;
56477;SDS011;42382;53.210;5.772;2024-03-29T14:07:09;1.58;;;0.90;;
56477;SDS011;42382;53.210;5.772;2024-03-29T14:09:38;1.42;;;0.70;;
56477;SDS011;42382;53.210;5.772;2024-03-29T14:12:08;7.40;;;1.38;;
56477;SDS011;42382;53.210;5.772;2024-03-29T14:14:33;2.60;;;1.08;;
56477;SDS011;42382;53.210;5.772;2024-03-29T14:16:59;2.72;;;1.10;;
56477;SDS011;42382;53.210;5.772;2024-03-29T14:19:32;2.45;;;1.00;;
56477;SDS011;42382;53.210;5.772;2024-03-29T14:22:02;2.55;;;0.80;;
56477;SDS011;42382;53.210;5.772;2024-03-29T14:24:28;1.98;;;1.00;;
56477;SDS011;42382;53.210;5.772;2024-03-29T14:26:55;4.35;;;1.33;;
56477;SDS011;42382;53.210;5.772;2024-03-29T14:29:24;2.35;;;0.65;;
56477;SDS011;42382;53.210;5.772;2024-03-29T14:31:50;3.47;;;0.75;;
56477;SDS011;42382;53.210;5.772;2024-03-29T14:34:16;2.20;;;0.60;;
56477;SDS011;42382;53.210;5.772;2024-03-29T14:36:43;3.20;;;0.43;;
56477;SDS011;42382;53.210;5.772;2024-03-29T14:39:09;3.30;;;0.77;;
56477;SDS011;42382;53.210;5.772;2024-03-29T14:41:37;2.50;;;0.60;;
56477;SDS011;42382;53.210;5.772;2024-03-29T14:44:04;3.03;;;0.50;;
56477;SDS011;42382;53.210;5.772;2024-03-29T14:46:35;2.38;;;0.30;;
56477;SDS011;42382;53.210;5.772;2024-03-29T14:49:02;2.75;;;0.40;;
56477;SDS011;42382;53.210;5.772;2024-03-29T14:51:35;2.40;;;0.63;;
56477;SDS011;42382;53.210;5.772;2024-03-29T14:54:01;4.00;;;0.60;;
56477;SDS011;42382;53.210;5.772;2024-03-29T14:56:28;1.63;;;0.68;;